Time;durP1;ratioP1;P1;durP2;ratioP2;P2;SDS_P1;SDS_P2;PMS_P1;PMS_P2;Temp;Humidity;BMP_temperature;BMP_pressure;BME280_temperature;BME280_humidity;BME280_pressure;Samples;Min_cycle;Max_cycle;Signal;HPM_P1;HPM_P2
2021/03/29 00:02:11;;;;;;;8.88;5.63;;;3.10;67.60;;;;;;5090749;28;20051;-82
2021/03/29 00:04:39;;;;;;;11.05;6.43;;;3.00;67.60;;;;;;5076859;28;20028;-82
2021/03/29 00:07:07;;;;;;;8.05;5.35;;;3.00;67.60;;;;;;5090104;28;20420;-84
2021/03/29 00:09:35;;;;;;;10.98;6.18;;;3.00;67.50;;;;;;5087975;28;20043;-82
2021/03/29 00:12:04;;;;;;;9.93;4.93;;;3.00;67.30;;;;;;5085529;28;20047;-81
2021/03/29 00:14:31;;;;;;;8.77;5.22;;;2.90;67.30;;;;;;5087598;28;20047;-79
2021/03/29 00:16:57;;;;;;;10.10;5.63;;;2.90;67.20;;;;;;5088717;28;20047;-81
2021/03/29 00:19:24;;;;;;;7.78;4.93;;;2.90;67.00;;;;;;5084278;28;20052;-82
2021/03/29 00:21:50;;;;;;;8.98;4.70;;;2.90;66.80;;;;;;5077272;28;20027;-81
2021/03/29 00:24:16;;;;;;;15.02;6.15;;;2.80;66.70;;;;;;5089694;28;22014;-82
2021/03/29 00:26:46;;;;;;;9.07;4.80;;;2.80;66.80;;;;;;5098107;28;20027;-81
2021/03/29 00:29:11;;;;;;;9.32;5.32;;;2.80;66.60;;;;;;5103064;28;20036;-80
2021/03/29 00:31:38;;;;;;;10.82;4.75;;;2.70;67.20;;;;;;5102166;28;20024;-80
2021/03/29 00:34:04;;;;;;;9.57;5.78;;;2.70;66.70;;;;;;5101842;28;20032;-80
2021/03/29 00:36:31;;;;;;;10.30;4.87;;;2.70;66.70;;;;;;5101664;28;20012;-81
2021/03/29 00:38:58;;;;;;;9.05;5.15;;;2.70;66.70;;;;;;5099370;28;20019;-81
2021/03/29 00:41:25;;;;;;;15.85;6.18;;;2.70;66.80;;;;;;5099943;28;20035;-83
2021/03/29 00:43:52;;;;;;;8.20;5.15;;;2.70;66.70;;;;;;5104886;28;20023;-81
2021/03/29 00:46:19;;;;;;;;;;;2.70;66.80;;;;;;5099472;28;20081;-82
2021/03/29 00:48:47;;;;;;;8.68;4.80;;;2.60;66.40;;;;;;5098130;28;20003;-80
2021/03/29 00:51:21;;;;;;;10.50;5.53;;;2.60;66.60;;;;;;5091209;28;20069;-82
2021/03/29 00:53:53;;;;;;;8.70;5.00;;;2.60;66.80;;;;;;5098641;28;20024;-81
2021/03/29 00:56:20;;;;;;;9.07;4.60;;;2.60;66.80;;;;;;5099097;28;20420;-81
2021/03/29 00:58:47;;;;;;;8.10;4.93;;;2.50;66.70;;;;;;5091539;28;20023;-82
2021/03/29 01:01:17;;;;;;;;;;;2.50;66.80;;;;;;5093136;28;20023;-81
2021/03/29 01:03:50;;;;;;;9.23;5.13;;;2.50;66.30;;;;;;5092050;28;19904;-80
2021/03/29 01:06:21;;;;;;;10.13;5.00;;;2.40;66.70;;;;;;5092730;28;20024;-82
2021/03/29 01:08:49;;;;;;;7.90;5.82;;;2.40;66.90;;;;;;5092357;28;20080;-80
2021/03/29 01:11:21;;;;;;;7.20;4.40;;;2.40;67.00;;;;;;5092635;28;20114;-81
2021/03/29 01:13:57;;;;;;;16.02;5.72;;;2.40;66.90;;;;;;5092469;28;20024;-82
2021/03/29 01:16:25;;;;;;;8.77;5.60;;;2.40;67.10;;;;;;5092280;28;20073;-81
2021/03/29 01:18:56;;;;;;;10.20;5.50;;;2.40;66.90;;;;;;5092910;28;20031;-81
2021/03/29 01:21:43;;;;;;;8.40;5.05;;;2.30;67.00;;;;;;5092605;28;20080;-81
2021/03/29 01:24:36;;;;;;;12.98;5.07;;;2.30;67.10;;;;;;5092926;28;20026;-80
2021/03/29 01:27:02;;;;;;;10.77;5.03;;;2.30;67.10;;;;;;5059393;28;20036;-81
2021/03/29 01:29:31;;;;;;;9.50;5.55;;;2.30;67.10;;;;;;5092486;28;20031;-80
2021/03/29 01:31:59;;;;;;;10.75;6.55;;;2.30;67.40;;;;;;5092290;28;20012;-81
2021/03/29 01:34:28;;;;;;;11.90;5.63;;;2.20;67.40;;;;;;5092728;28;20033;-81
2021/03/29 01:36:56;;;;;;;9.85;5.38;;;2.20;67.50;;;;;;5092331;28;20019;-81
2021/03/29 01:39:23;;;;;;;8.82;5.50;;;2.20;67.30;;;;;;5092703;28;20480;-80
2021/03/29 01:41:50;;;;;;;8.73;5.30;;;2.20;67.40;;;;;;5092560;28;20020;-79
2021/03/29 01:44:17;;;;;;;9.80;5.22;;;2.20;67.40;;;;;;5092448;28;20023;-80
2021/03/29 01:46:44;;;;;;;11.57;4.97;;;2.10;67.40;;;;;;5091331;28;20503;-79
2021/03/29 01:49:10;;;;;;;8.63;5.10;;;2.10;67.50;;;;;;5092355;28;20036;-79
2021/03/29 01:51:36;;;;;;;9.43;5.97;;;2.10;67.60;;;;;;5093760;28;20034;-81
2021/03/29 01:54:02;;;;;;;7.93;5.43;;;2.10;67.70;;;;;;5093166;28;20020;-79
2021/03/29 01:56:28;;;;;;;10.80;6.15;;;2.00;67.60;;;;;;5092733;28;20085;-79
2021/03/29 01:58:54;;;;;;;8.43;5.22;;;2.00;67.80;;;;;;5092397;28;20036;-80
2021/03/29 02:01:20;;;;;;;12.57;6.65;;;2.00;67.90;;;;;;5090986;28;20031;-79
2021/03/29 02:03:48;;;;;;;9.40;5.47;;;1.90;68.10;;;;;;5091990;28;20046;-78
2021/03/29 02:06:14;;;;;;;10.25;5.53;;;1.80;68.30;;;;;;5091904;28;20031;-80
2021/03/29 02:08:42;;;;;;;8.35;5.43;;;1.90;68.30;;;;;;5091679;28;20040;-79
2021/03/29 02:11:09;;;;;;;10.88;6.20;;;1.80;68.30;;;;;;5090777;28;20025;-79
2021/03/29 02:13:38;;;;;;;10.45;6.13;;;1.80;68.20;;;;;;5092191;28;20047;-80
2021/03/29 02:16:09;;;;;;;7.43;5.35;;;1.80;68.10;;;;;;5093942;28;20043;-80
2021/03/29 02:18:56;;;;;;;10.02;6.05;;;1.80;68.20;;;;;;5095540;28;20199;-80
2021/03/29 02:21:37;;;;;;;9.38;5.78;;;1.80;68.10;;;;;;5095472;28;20020;-80
2021/03/29 02:24:04;;;;;;;12.70;6.47;;;1.80;68.00;;;;;;5095876;28;20024;-81
2021/03/29 02:26:35;;;;;;;;;;;1.70;68.20;;;;;;5094454;28;20016;-80
2021/03/29 02:29:02;;;;;;;8.43;5.63;;;1.70;67.80;;;;;;5095173;28;19923;-79
2021/03/29 02:31:29;;;;;;;13.18;7.30;;;1.60;67.90;;;;;;5095531;28;20412;-80
2021/03/29 02:33:57;;;;;;;13.27;6.40;;;1.60;68.20;;;;;;5095387;28;20023;-79
2021/03/29 02:36:23;;;;;;;12.38;6.13;;;1.60;68.30;;;;;;5095270;28;20016;-80
2021/03/29 02:38:50;;;;;;;12.63;5.47;;;1.60;68.50;;;;;;5093838;28;20028;-81
2021/03/29 02:41:29;;;;;;;10.45;6.07;;;1.50;68.30;;;;;;5095202;28;20020;-79
2021/03/29 02:43:58;;;;;;;10.57;6.68;;;1.50;68.30;;;;;;5094901;28;20020;-80
2021/03/29 02:46:27;;;;;;;11.98;5.75;;;1.50;68.40;;;;;;5094927;28;20111;-80
2021/03/29 02:48:55;;;;;;;10.60;5.97;;;1.50;68.40;;;;;;5094790;28;20028;-79
2021/03/29 02:51:21;;;;;;;9.63;5.50;;;1.40;68.60;;;;;;5094096;28;20161;-79
2021/03/29 02:53:55;;;;;;;8.68;5.43;;;1.30;69.20;;;;;;5095419;28;20020;-79
2021/03/29 02:56:24;;;;;;;11.05;5.95;;;1.30;68.50;;;;;;5096099;28;20020;-80
2021/03/29 02:58:53;;;;;;;16.25;7.28;;;1.30;68.50;;;;;;5095682;28;20511;-81
2021/03/29 03:01:23;;;;;;;12.02;6.45;;;1.30;68.60;;;;;;5094769;28;20024;-81
2021/03/29 03:03:52;;;;;;;8.75;5.97;;;1.30;68.60;;;;;;5094599;28;20069;-80
2021/03/29 03:06:24;;;;;;;7.05;5.68;;;1.30;68.50;;;;;;5093165;28;20024;-80
2021/03/29 03:08:51;;;;;;;9.07;5.93;;;1.30;68.50;;;;;;5094412;28;20058;-80
2021/03/29 03:11:18;;;;;;;;;;;1.30;68.50;;;;;;5094720;28;20074;-80
2021/03/29 03:13:45;;;;;;;8.57;5.88;;;1.30;68.20;;;;;;5093381;28;19912;-80
2021/03/29 03:16:11;;;;;;;10.93;6.22;;;1.30;68.40;;;;;;5094380;28;20073;-80
2021/03/29 03:18:40;;;;;;;11.55;6.07;;;1.30;68.50;;;;;;5094269;28;20103;-80
2021/03/29 03:21:07;;;;;;;13.52;6.30;;;1.30;68.60;;;;;;5094197;28;20031;-80
2021/03/29 03:23:34;;;;;;;10.77;5.78;;;1.30;68.60;;;;;;5094300;28;20069;-80
2021/03/29 03:25:59;;;;;;;9.52;5.93;;;1.30;68.50;;;;;;5094131;28;20049;-80
2021/03/29 03:28:28;;;;;;;11.55;6.32;;;1.40;68.50;;;;;;5094876;28;20508;-79
2021/03/29 03:30:58;;;;;;;6.55;5.22;;;1.40;68.40;;;;;;5093591;28;20074;-79
2021/03/29 03:33:29;;;;;;;15.38;7.03;;;1.50;68.20;;;;;;5095831;28;20020;-80
2021/03/29 03:35:55;;;;;;;7.85;5.70;;;1.50;68.00;;;;;;5094125;28;20027;-79
2021/03/29 03:38:31;;;;;;;13.20;6.30;;;1.60;67.80;;;;;;5094811;28;20024;-79
2021/03/29 03:41:00;;;;;;;8.38;6.25;;;1.60;67.60;;;;;;5094037;28;20016;-77
2021/03/29 03:43:32;;;;;;;9.00;5.70;;;1.70;67.50;;;;;;5093905;28;20169;-79
2021/03/29 03:46:09;;;;;;;14.95;6.45;;;1.70;67.30;;;;;;5093906;28;20019;-79
2021/03/29 03:48:37;;;;;;;9.27;6.25;;;1.70;67.10;;;;;;5093767;28;20039;-79
2021/03/29 03:51:08;;;;;;;9.32;5.70;;;1.80;66.80;;;;;;5093846;28;20039;-79
2021/03/29 03:53:35;;;;;;;11.63;6.90;;;1.80;66.30;;;;;;5093691;28;20016;-81
2021/03/29 03:56:02;;;;;;;10.25;6.45;;;1.90;66.00;;;;;;5092614;28;20028;-82
2021/03/29 03:58:29;;;;;;;12.35;7.05;;;1.90;65.80;;;;;;5093500;28;20046;-80
2021/03/29 04:00:56;;;;;;;11.45;7.95;;;2.00;65.70;;;;;;5093707;28;20069;-83
2021/03/29 04:03:24;;;;;;;12.13;6.50;;;2.10;65.30;;;;;;5093688;28;20032;-81
2021/03/29 04:05:49;;;;;;;;;;;2.20;64.90;;;;;;5092716;28;20280;-79
2021/03/29 04:08:15;;;;;;;11.57;5.65;;;2.20;64.80;;;;;;5093252;28;19973;-83
2021/03/29 04:13:30;;;;;;;14.30;7.13;;;2.30;64.50;;;;;;5093575;28;20024;-82
2021/03/29 04:15:57;;;;;;;9.45;5.95;;;2.40;64.80;;;;;;5092085;28;20038;-82
2021/03/29 04:18:23;;;;;;;15.95;6.55;;;2.60;64.30;;;;;;5093313;28;20062;-82
2021/03/29 04:20:51;;;;;;;17.35;6.80;;;2.80;65.30;;;;;;5093132;28;20066;-82
2021/03/29 04:23:22;;;;;;;12.35;6.22;;;3.20;63.80;;;;;;5093410;28;20024;-81
2021/03/29 04:25:48;;;;;;;13.30;6.28;;;3.60;62.30;;;;;;5092451;28;20020;-81
2021/03/29 04:28:14;;;;;;;7.90;5.20;;;4.20;61.20;;;;;;5096770;28;20081;-79
2021/03/29 04:30:41;;;;;;;14.30;6.25;;;4.70;59.40;;;;;;5093003;28;20157;-83
2021/03/29 04:33:07;;;;;;;8.70;6.10;;;5.10;57.20;;;;;;5093054;28;20054;-80
2021/03/29 04:35:33;;;;;;;10.10;5.97;;;5.50;56.40;;;;;;5093377;28;20031;-81
2021/03/29 04:37:59;;;;;;;17.20;7.63;;;5.70;54.60;;;;;;5092574;28;20026;-82
2021/03/29 04:40:26;;;;;;;9.95;7.00;;;5.90;53.90;;;;;;5093208;28;20027;-81
2021/03/29 04:42:53;;;;;;;9.00;6.20;;;6.00;54.00;;;;;;5093038;28;20099;-82
2021/03/29 04:45:20;;;;;;;10.40;5.47;;;6.20;53.50;;;;;;5092908;28;20028;-82
2021/03/29 04:47:46;;;;;;;12.07;6.07;;;6.60;52.50;;;;;;5091949;28;20396;-81
2021/03/29 04:50:15;;;;;;;13.48;6.80;;;7.00;52.30;;;;;;5092881;28;20023;-82
2021/03/29 04:52:41;;;;;;;11.38;6.07;;;6.80;50.50;;;;;;5093261;28;20020;-83
2021/03/29 04:55:08;;;;;;;13.68;6.35;;;6.30;50.60;;;;;;5093046;28;20031;-80
2021/03/29 04:57:34;;;;;;;10.80;5.00;;;5.70;51.70;;;;;;5091909;28;20031;-80
2021/03/29 05:00:00;;;;;;;16.27;6.88;;;5.10;51.90;;;;;;5093024;28;20264;-82
2021/03/29 05:02:26;;;;;;;11.43;5.35;;;4.60;53.00;;;;;;5083403;28;20042;-82
2021/03/29 05:04:51;;;;;;;10.77;5.68;;;4.30;53.90;;;;;;5093129;28;20058;-80
2021/03/29 05:07:20;;;;;;;15.40;5.90;;;3.80;54.60;;;;;;5091066;28;20073;-82
2021/03/29 05:09:46;;;;;;;8.35;5.43;;;3.60;55.50;;;;;;5092180;28;20057;-81
2021/03/29 05:12:12;;;;;;;13.95;5.78;;;3.50;55.60;;;;;;5091558;28;20039;-81
2021/03/29 05:14:39;;;;;;;8.98;6.00;;;3.30;55.90;;;;;;5091541;28;20016;-82
2021/03/29 05:17:09;;;;;;;7.97;5.78;;;3.20;56.50;;;;;;5092723;28;20352;-81
2021/03/29 05:19:35;;;;;;;16.75;6.22;;;3.20;56.40;;;;;;5090935;28;20484;-82
2021/03/29 05:22:03;;;;;;;12.35;6.10;;;3.10;56.40;;;;;;5092682;28;20430;-81
2021/03/29 05:24:29;;;;;;;13.98;5.38;;;3.10;56.60;;;;;;5092194;28;20057;-82
2021/03/29 05:26:55;;;;;;;8.95;5.10;;;3.20;56.80;;;;;;5093717;28;20028;-82
2021/03/29 05:29:27;;;;;;;8.43;6.20;;;3.10;56.70;;;;;;5092329;28;20032;-81
2021/03/29 05:31:56;;;;;;;15.00;6.38;;;3.20;57.20;;;;;;5091700;28;20044;-82
2021/03/29 05:34:24;;;;;;;8.98;4.85;;;3.20;56.60;;;;;;5093024;28;20124;-81
2021/03/29 05:36:50;;;;;;;16.30;6.95;;;3.10;55.90;;;;;;5076846;28;20123;-83
2021/03/29 05:39:15;;;;;;;9.50;5.22;;;3.10;55.80;;;;;;5092289;28;20557;-83
2021/03/29 05:41:42;;;;;;;9.80;4.45;;;3.10;55.70;;;;;;5096462;28;20080;-80
2021/03/29 05:44:09;;;;;;;9.85;4.43;;;3.00;55.40;;;;;;5101753;28;20017;-81
2021/03/29 05:46:41;;;;;;;16.85;5.35;;;3.00;55.40;;;;;;5091949;28;20054;-82
2021/03/29 05:49:08;;;;;;;16.45;5.25;;;3.00;55.60;;;;;;5090519;28;20079;-80
2021/03/29 05:51:38;;;;;;;7.65;4.55;;;3.20;55.90;;;;;;5092182;28;20051;-84
2021/03/29 05:54:06;;;;;;;13.95;5.90;;;3.30;55.10;;;;;;5093465;28;20020;-82
2021/03/29 05:56:38;;;;;;;7.82;4.88;;;3.40;54.80;;;;;;5098865;28;20026;-83
2021/03/29 06:01:50;;;;;;;17.15;6.53;;;3.70;53.40;;;;;;5097760;28;20080;-84
2021/03/29 06:04:36;;;;;;;13.23;5.07;;;3.90;53.40;;;;;;5086989;28;20031;-83
2021/03/29 06:07:25;;;;;;;11.18;4.88;;;3.90;53.20;;;;;;5089360;28;20085;-82
2021/03/29 06:09:56;;;;;;;13.25;4.68;;;3.80;51.90;;;;;;5082565;28;20419;-83
2021/03/29 06:12:23;;;;;;;18.80;5.97;;;3.80;53.00;;;;;;5095802;28;20362;-83
2021/03/29 06:15:01;;;;;;;14.20;5.20;;;3.90;52.60;;;;;;5094897;28;20477;-83
2021/03/29 06:17:27;;;;;;;9.13;4.45;;;3.90;52.30;;;;;;5096123;28;20028;-84
2021/03/29 06:20:02;;;;;;;13.93;4.35;;;4.00;51.50;;;;;;5095669;28;20073;-83
2021/03/29 06:22:28;;;;;;;12.15;4.63;;;4.00;50.60;;;;;;5094196;28;20119;-83
2021/03/29 06:25:14;;;;;;;12.93;5.90;;;4.00;50.70;;;;;;5095204;28;20048;-84
2021/03/29 06:27:56;;;;;;;7.57;4.05;;;4.10;50.60;;;;;;5095204;28;20139;-82
2021/03/29 06:30:30;;;;;;;13.45;4.53;;;4.20;49.90;;;;;;5094228;28;20020;-83
2021/03/29 06:33:01;;;;;;;9.73;4.22;;;4.30;50.00;;;;;;5095442;28;20380;-82
2021/03/29 06:35:40;;;;;;;10.85;4.05;;;4.40;49.00;;;;;;5094474;28;20030;-82
2021/03/29 06:38:10;;;;;;;10.25;3.72;;;4.40;48.50;;;;;;5096585;28;20032;-82
2021/03/29 06:40:39;;;;;;;11.35;3.45;;;4.40;47.80;;;;;;5093819;28;20111;-83
2021/03/29 06:43:17;;;;;;;14.13;4.00;;;4.40;47.40;;;;;;5096193;28;20048;-83
2021/03/29 06:45:43;;;;;;;8.02;4.40;;;4.50;47.30;;;;;;5098777;28;20078;-79
2021/03/29 06:48:28;;;;;;;12.48;4.25;;;4.40;47.10;;;;;;5096043;28;20032;-82
2021/03/29 06:51:13;;;;;;;21.55;6.00;;;4.50;47.50;;;;;;5099146;28;20016;-83
2021/03/29 06:53:42;;;;;;;11.00;4.80;;;4.70;47.80;;;;;;5094690;28;20028;-82
2021/03/29 06:56:47;;;;;;;7.25;4.13;;;4.80;47.70;;;;;;5095716;28;20027;-84
2021/03/29 06:59:19;;;;;;;8.52;3.45;;;4.90;46.80;;;;;;5082875;28;20170;-83
2021/03/29 07:01:50;;;;;;;10.27;4.20;;;5.00;46.00;;;;;;5094488;28;20030;-83
2021/03/29 07:04:24;;;;;;;20.08;5.45;;;5.10;45.90;;;;;;5094649;28;20023;-83
2021/03/29 07:06:53;;;;;;;10.45;4.80;;;5.20;45.40;;;;;;5094972;28;20039;-82
2021/03/29 07:09:19;;;;;;;11.02;4.68;;;5.20;45.40;;;;;;5094346;28;20047;-82
2021/03/29 07:11:47;;;;;;;11.50;4.05;;;5.40;44.80;;;;;;5094797;28;20016;-83
2021/03/29 07:14:17;;;;;;;11.55;5.10;;;6.20;44.90;;;;;;5093197;28;20024;-82
2021/03/29 07:16:45;;;;;;;10.15;3.53;;;8.30;44.00;;;;;;5094889;28;20031;-83
2021/03/29 07:19:11;;;;;;;17.40;4.70;;;10.80;39.50;;;;;;5094612;28;20089;-82
2021/03/29 07:21:38;;;;;;;11.70;5.82;;;13.10;36.80;;;;;;5094359;28;20077;-84
2021/03/29 07:24:05;;;;;;;11.68;4.82;;;15.30;32.30;;;;;;5094798;28;20031;-84
2021/03/29 07:26:32;;;;;;;;;;;16.90;29.30;;;;;;5093971;28;20438;-83
2021/03/29 07:28:57;;;;;;;16.02;4.20;;;17.90;31.20;;;;;;5095475;28;20330;-83
2021/03/29 07:31:37;;;;;;;6.78;6.13;;;18.50;27.40;;;;;;5094923;28;20012;-83
2021/03/29 07:34:06;;;;;;;7.38;3.00;;;17.90;25.80;;;;;;5095135;28;20032;-83
2021/03/29 07:36:45;;;;;;;12.13;4.45;;;17.60;26.10;;;;;;5095443;28;20473;-82
2021/03/29 07:39:20;;;;;;;11.80;4.88;;;17.90;26.60;;;;;;5095511;28;20115;-83
2021/03/29 07:41:46;;;;;;;11.75;4.22;;;19.10;25.50;;;;;;5092852;28;20012;-83
2021/03/29 07:44:19;;;;;;;11.43;4.15;;;20.00;24.50;;;;;;5083508;28;20078;-82
2021/03/29 07:46:59;;;;;;;6.97;3.70;;;20.80;23.90;;;;;;5092462;28;20020;-81
2021/03/29 07:49:41;;;;;;;8.35;3.70;;;21.80;23.70;;;;;;5094835;28;20527;-83
2021/03/29 07:52:26;;;;;;;11.30;3.15;;;22.50;22.90;;;;;;5094087;28;20484;-83
2021/03/29 07:54:53;;;;;;;12.10;2.75;;;22.90;22.60;;;;;;5092744;28;20032;-82
2021/03/29 07:58:00;;;;;;;19.98;3.78;;;23.00;21.50;;;;;;5094018;28;20049;-82
2021/03/29 08:00:27;;;;;;;9.15;3.67;;;23.20;22.10;;;;;;5092838;28;20031;-82
2021/03/29 08:02:56;;;;;;;8.90;3.17;;;23.40;21.60;;;;;;5094567;28;20043;-80
2021/03/29 08:05:38;;;;;;;5.65;3.72;;;23.90;21.10;;;;;;5095051;28;20533;-85
2021/03/29 08:08:26;;;;;;;6.00;3.95;;;23.80;21.20;;;;;;5082095;28;20075;-83
2021/03/29 08:10:56;;;;;;;8.98;5.00;;;23.90;21.40;;;;;;5095654;28;20048;-82
2021/03/29 08:13:48;;;;;;;12.40;3.72;;;24.10;21.00;;;;;;5094331;28;20028;-83
2021/03/29 08:16:27;;;;;;;7.25;3.83;;;24.40;21.30;;;;;;5093332;28;20013;-82
2021/03/29 08:19:46;;;;;;;10.35;3.72;;;23.80;20.80;;;;;;5091727;28;20039;-83
2021/03/29 08:22:16;;;;;;;7.25;3.22;;;23.10;21.50;;;;;;5082728;28;20050;-83
2021/03/29 08:24:50;;;;;;;7.00;3.00;;;22.20;21.10;;;;;;5091872;28;20016;-85
2021/03/29 08:27:19;;;;;;;9.82;3.45;;;22.20;21.40;;;;;;5084511;28;20028;-82
2021/03/29 08:29:53;;;;;;;6.68;2.72;;;23.10;21.00;;;;;;5093003;28;20016;-84
2021/03/29 08:32:33;;;;;;;19.23;4.38;;;23.80;20.70;;;;;;5091956;28;20047;-82
2021/03/29 08:35:04;;;;;;;7.35;3.70;;;24.60;20.80;;;;;;5092772;28;20459;-82
2021/03/29 08:37:42;;;;;;;7.97;4.15;;;24.60;20.20;;;;;;5093161;28;20020;-82
2021/03/29 08:40:25;;;;;;;8.88;3.42;;;24.60;20.40;;;;;;5092936;28;20427;-83
2021/03/29 08:42:53;;;;;;;8.18;3.42;;;25.00;20.20;;;;;;5093079;28;20099;-84
2021/03/29 08:45:21;;;;;;;7.63;3.72;;;23.60;20.20;;;;;;5093084;28;20017;-83
2021/03/29 08:47:49;;;;;;;4.90;2.75;;;24.10;20.30;;;;;;5091645;28;20477;-81
2021/03/29 08:50:23;;;;;;;8.85;3.20;;;23.80;19.80;;;;;;5092726;28;20376;-82
2021/03/29 08:52:51;;;;;;;9.30;3.20;;;23.40;20.40;;;;;;5092946;28;20027;-84
2021/03/29 08:55:27;;;;;;;10.57;3.33;;;24.10;20.30;;;;;;5091706;28;20024;-83
2021/03/29 08:57:55;;;;;;;8.07;3.67;;;24.80;19.80;;;;;;5092038;28;20031;-82
2021/03/29 09:00:24;;;;;;;8.07;3.15;;;25.30;19.90;;;;;;5091775;28;20028;-83
2021/03/29 09:02:56;;;;;;;7.15;3.78;;;25.30;19.60;;;;;;5091779;28;20024;-81
2021/03/29 09:05:23;;;;;;;5.18;3.53;;;25.80;19.70;;;;;;5092119;28;20028;-82
2021/03/29 09:07:53;;;;;;;10.95;3.40;;;25.50;19.30;;;;;;5091071;28;20131;-82
2021/03/29 09:10:23;;;;;;;9.85;3.95;;;25.70;19.30;;;;;;5092660;28;20477;-82
2021/03/29 09:13:14;;;;;;;5.15;2.83;;;25.50;19.20;;;;;;5092568;28;20027;-83
2021/03/29 09:15:42;;;;;;;7.75;3.40;;;25.40;19.50;;;;;;5092466;28;20115;-83
2021/03/29 09:18:18;;;;;;;10.63;3.10;;;25.00;20.00;;;;;;5091927;28;20059;-82
2021/03/29 09:20:49;;;;;;;6.88;3.28;;;25.50;19.70;;;;;;5093241;28;20032;-81
2021/03/29 09:23:19;;;;;;;5.63;2.83;;;26.20;19.30;;;;;;5071551;28;20496;-82
2021/03/29 09:25:47;;;;;;;5.05;3.03;;;26.10;18.90;;;;;;5088775;28;20027;-83
2021/03/29 09:28:23;;;;;;;10.48;3.80;;;26.00;19.10;;;;;;5096534;28;20020;-82
2021/03/29 09:31:00;;;;;;;5.15;3.22;;;26.30;18.90;;;;;;5096921;28;20428;-84
2021/03/29 09:33:27;;;;;;;4.00;2.25;;;26.70;18.90;;;;;;5096945;28;20039;-83
2021/03/29 09:35:54;;;;;;;4.70;2.40;;;25.50;18.10;;;;;;5095435;28;20016;-84
2021/03/29 09:38:43;;;;;;;10.18;3.00;;;23.20;19.10;;;;;;5096161;28;20032;-83
2021/03/29 09:41:23;;;;;;;8.98;2.83;;;23.60;19.90;;;;;;5094861;28;20115;-82
2021/03/29 09:43:51;;;;;;;6.95;2.97;;;24.40;19.70;;;;;;5083907;28;20008;-84
2021/03/29 09:46:27;;;;;;;2.53;2.28;;;25.00;19.40;;;;;;5097724;28;20028;-83
2021/03/29 09:49:11;;;;;;;7.47;3.22;;;25.40;19.00;;;;;;5083481;28;20043;-83
2021/03/29 09:51:42;;;;;;;5.57;2.50;;;25.80;19.20;;;;;;5094798;28;20414;-83
2021/03/29 09:54:32;;;;;;;7.90;2.63;;;24.30;18.70;;;;;;5096299;28;20035;-83
2021/03/29 09:57:14;;;;;;;7.72;2.72;;;22.60;20.00;;;;;;5096145;28;20039;-84
2021/03/29 09:59:42;;;;;;;8.13;3.08;;;22.70;20.00;;;;;;5095760;28;20040;-83
2021/03/29 10:02:16;;;;;;;8.00;2.90;;;23.40;19.90;;;;;;5094321;28;20051;-81
2021/03/29 10:04:43;;;;;;;9.02;2.80;;;24.80;19.70;;;;;;5095950;28;20027;-82
2021/03/29 10:07:18;;;;;;;6.40;2.58;;;25.70;18.90;;;;;;5097746;28;20024;-82
2021/03/29 10:09:47;;;;;;;4.93;2.25;;;25.90;18.90;;;;;;5082610;28;20016;-86
2021/03/29 10:12:30;;;;;;;4.95;2.33;;;26.60;18.80;;;;;;5095722;28;20031;-85
2021/03/29 10:15:09;;;;;;;5.18;2.67;;;25.30;19.00;;;;;;5084973;28;20023;-85
2021/03/29 10:17:36;;;;;;;14.32;2.72;;;25.60;19.30;;;;;;5096191;28;20024;-83
2021/03/29 10:20:15;;;;;;;6.20;2.88;;;26.20;19.20;;;;;;5095721;28;20054;-84
2021/03/29 10:22:41;;;;;;;5.03;2.35;;;26.90;19.50;;;;;;5095071;28;20425;-82
2021/03/29 10:25:14;;;;;;;7.35;3.13;;;26.00;18.40;;;;;;5094806;28;20043;-83
2021/03/29 10:27:52;;;;;;;9.13;3.13;;;23.90;19.30;;;;;;5095660;28;20054;-83
2021/03/29 10:30:18;;;;;;;14.82;3.83;;;21.40;20.30;;;;;;5095106;28;20024;-83
2021/03/29 10:32:44;;;;;;;11.98;3.70;;;19.50;22.10;;;;;;5097436;28;20031;-82
2021/03/29 10:35:11;;;;;;;9.65;3.10;;;18.10;22.90;;;;;;5102739;28;20069;-82
2021/03/29 10:37:37;;;;;;;10.27;2.90;;;16.90;23.90;;;;;;5095668;28;20052;-81
2021/03/29 10:40:05;;;;;;;9.95;4.10;;;15.40;24.50;;;;;;5095553;28;20481;-81
2021/03/29 10:42:42;;;;;;;9.48;3.45;;;14.60;25.50;;;;;;5096209;28;20020;-83
2021/03/29 10:45:11;;;;;;;10.02;3.58;;;13.80;25.90;;;;;;5095459;28;20021;-82
2021/03/29 10:47:37;;;;;;;8.40;3.50;;;13.10;26.10;;;;;;5096181;28;20115;-82
2021/03/29 10:50:05;;;;;;;4.28;2.72;;;12.20;27.00;;;;;;5095747;28;20028;-82
2021/03/29 10:52:31;;;;;;;7.07;3.50;;;11.80;27.50;;;;;;5095908;28;20419;-81
2021/03/29 10:54:57;;;;;;;8.75;2.88;;;11.60;28.10;;;;;;5095780;28;20024;-84
2021/03/29 10:57:33;;;;;;;6.80;3.47;;;11.30;28.00;;;;;;5096869;28;20551;-83
2021/03/29 10:59:59;;;;;;;9.70;3.88;;;11.10;28.50;;;;;;5094988;28;20028;-81
2021/03/29 11:02:26;;;;;;;6.85;2.97;;;11.10;28.70;;;;;;5095601;28;20042;-82
2021/03/29 11:04:51;;;;;;;6.35;3.08;;;11.10;28.50;;;;;;5095218;28;20024;-83
2021/03/29 11:07:36;;;;;;;;;;;;;;;;;;;;;
2021/03/29 11:10:03;;;;;;;6.38;2.97;;;10.60;29.00;;;;;;5095718;28;20040;-82
2021/03/29 11:12:34;;;;;;;12.03;3.43;;;10.50;29.60;;;;;;5094238;28;20020;-82
2021/03/29 11:15:00;;;;;;;6.18;3.22;;;10.50;29.80;;;;;;5094401;28;20030;-82
2021/03/29 11:17:28;;;;;;;6.90;3.22;;;10.30;29.80;;;;;;5095478;28;20527;-83
2021/03/29 11:19:54;;;;;;;9.50;3.10;;;10.00;30.00;;;;;;5096297;28;20032;-83
2021/03/29 11:22:20;;;;;;;8.73;3.05;;;9.70;30.30;;;;;;5096251;28;20082;-83
2021/03/29 11:24:46;;;;;;;6.63;2.85;;;9.80;31.00;;;;;;5095386;28;20104;-83
2021/03/29 11:27:12;;;;;;;9.60;3.63;;;10.00;31.00;;;;;;5095300;28;20024;-82
2021/03/29 11:29:37;;;;;;;4.68;2.20;;;10.10;31.20;;;;;;5094184;28;20028;-83
2021/03/29 11:32:03;;;;;;;6.35;2.17;;;10.10;29.90;;;;;;5094416;28;20035;-83
2021/03/29 11:34:29;;;;;;;11.15;3.90;;;9.70;30.00;;;;;;5094361;28;20084;-82
2021/03/29 11:36:55;;;;;;;7.90;3.13;;;9.40;30.80;;;;;;5093063;28;20536;-82
2021/03/29 11:39:21;;;;;;;7.53;3.47;;;9.50;30.70;;;;;;5094360;28;20111;-82
2021/03/29 11:41:50;;;;;;;6.20;2.88;;;9.60;30.90;;;;;;5094388;28;20149;-82
2021/03/29 11:44:19;;;;;;;5.05;2.42;;;9.70;31.10;;;;;;5093373;28;20020;-82
2021/03/29 11:46:48;;;;;;;7.72;2.53;;;9.70;30.80;;;;;;5093204;28;20050;-83
2021/03/29 11:49:14;;;;;;;5.55;2.20;;;9.80;30.90;;;;;;5094005;28;20052;-82
2021/03/29 11:51:40;;;;;;;7.30;2.50;;;9.80;30.20;;;;;;5094658;28;20093;-82
2021/03/29 11:54:06;;;;;;;7.70;1.88;;;9.80;30.30;;;;;;5095500;28;20054;-81
2021/03/29 11:56:39;;;;;;;6.05;2.50;;;9.80;29.90;;;;;;5096908;28;20122;-82
2021/03/29 11:59:05;;;;;;;4.60;2.65;;;9.70;30.00;;;;;;5097956;28;20388;-83
2021/03/29 12:04:19;;;;;;;7.45;2.83;;;9.60;30.70;;;;;;5080128;28;20051;-82
2021/03/29 12:06:54;;;;;;;7.55;2.17;;;9.50;30.60;;;;;;5094116;28;20032;-82
2021/03/29 12:09:38;;;;;;;6.55;2.50;;;9.40;30.30;;;;;;5093706;28;20059;-82
2021/03/29 12:12:05;;;;;;;11.07;2.13;;;9.20;30.00;;;;;;5095842;28;20020;-81
2021/03/29 12:14:34;;;;;;;4.77;2.30;;;9.00;30.20;;;;;;5093276;28;20012;-83
2021/03/29 12:17:01;;;;;;;4.68;1.83;;;8.90;30.30;;;;;;5093263;28;20450;-81
2021/03/29 12:19:28;;;;;;;10.35;3.30;;;8.80;29.70;;;;;;5093380;28;22029;-81
2021/03/29 12:21:57;;;;;;;5.00;2.00;;;8.80;30.30;;;;;;5092079;28;20028;-80
2021/03/29 12:24:30;;;;;;;4.30;2.60;;;9.00;30.30;;;;;;5092208;28;20024;-81
2021/03/29 12:27:06;;;;;;;4.93;2.70;;;9.10;30.40;;;;;;5093867;28;20016;-81
2021/03/29 12:29:52;;;;;;;9.83;2.87;;;9.30;30.90;;;;;;5093228;28;20024;-82
2021/03/29 12:32:20;;;;;;;6.75;2.05;;;9.40;29.70;;;;;;5097989;28;20260;-81
2021/03/29 12:34:58;;;;;;;8.60;2.80;;;9.50;29.50;;;;;;5091758;28;20024;-83
2021/03/29 12:37:31;;;;;;;8.05;2.90;;;9.70;29.90;;;;;;5092976;28;20019;-81
2021/03/29 12:40:09;;;;;;;5.47;2.42;;;10.00;29.60;;;;;;5075504;28;20028;-82
2021/03/29 12:42:48;;;;;;;5.15;2.13;;;9.90;29.20;;;;;;5092749;28;20483;-80
2021/03/29 12:45:22;;;;;;;4.38;2.20;;;10.10;29.30;;;;;;5092792;28;20032;-82
2021/03/29 12:47:49;;;;;;;4.57;2.22;;;9.90;28.80;;;;;;5092881;28;20028;-81
2021/03/29 12:50:16;;;;;;;7.43;2.70;;;9.70;29.00;;;;;;5091513;28;20062;-81
2021/03/29 12:52:44;;;;;;;4.80;1.70;;;9.60;29.00;;;;;;5092581;28;20164;-81
2021/03/29 12:55:14;;;;;;;4.78;1.85;;;9.50;29.00;;;;;;5091033;28;20043;-83
2021/03/29 12:57:40;;;;;;;9.45;2.40;;;9.40;28.80;;;;;;5092640;28;20080;-81
2021/03/29 13:00:09;;;;;;;7.22;2.70;;;9.20;29.10;;;;;;5092263;28;20024;-82
2021/03/29 13:02:36;;;;;;;7.18;2.70;;;9.30;29.90;;;;;;5092873;28;20082;-81
2021/03/29 13:05:04;;;;;;;5.53;2.40;;;9.50;29.90;;;;;;5092547;28;20027;-82
2021/03/29 13:07:38;;;;;;;9.50;3.65;;;9.50;29.80;;;;;;5092333;28;20418;-82
2021/03/29 13:12:51;;;;;;;5.65;1.95;;;9.60;30.00;;;;;;5092875;28;20031;-83
2021/03/29 13:15:20;;;;;;;9.93;2.75;;;9.50;30.00;;;;;;5091508;28;20028;-83
2021/03/29 13:17:46;;;;;;;6.47;2.17;;;9.40;30.00;;;;;;5091289;28;20069;-82
2021/03/29 13:20:16;;;;;;;7.65;3.33;;;9.30;30.60;;;;;;5093094;28;20415;-83
2021/03/29 13:22:48;;;;;;;5.88;3.05;;;9.40;30.30;;;;;;5092824;28;20420;-84